Terminal Aerodrome Forecast
Issued by NWS

Home | Current Version | Previous Version | Text Only | Print | Product List | Glossary On
Versions: 1 2 3 4 5 6 7 8 9 10 11 12 13 14 15 16 17 18 19
768
FTUS46 KMTR 241126
TAFOAK
TAF
KOAK 241126Z 2412/2518 26006KT P6SM OVC013
     FM241800 26013KT P6SM SCT020 SCT060
     FM250400 26009KT P6SM BKN020
     FM250600 26008KT P6SM OVC015
     FM251200 26006KT P6SM OVC012
     FM251700 25011KT P6SM SCT020 SCT040=

USA.gov is the U.S. government's official web portal to all federal, state and local government web resources and services.